Flugplatz Adolf Würth

Bericht für EDTY

vom 14.12. um 00:50 UTC

Wind 11 kt aus 230°

Sichtweite 10 km oder mehr

gering bewölkt in 3400 ft

aufgebrochene Bewölkung in 3900 ft

aufgebrochene Bewölkung in 15000 ft

Temperatur 3.0°C

Taupunkt 1.0°C

Luftfeuchtigkeit 87%

Luftdruck 992 hPa

EDTY 140050Z AUTO 23011KT 9999 // FEW034/// BKN039/// BKN150/// 03/01 Q0992

Prognose für EDTY

vom 13.12. um 00:00 UTC

Am 13.12. zwischen 00:00 UTC und 00:00 UTC zeitweise mit einer Wahrscheinlichkeit von 30%

Sichtweite 4000 m

Regen

Sprühregen

aufgebrochene Bewölkung in 1000 ft


Am 13.12. zwischen 00:00 UTC und 00:00 UTC zeitweise

Wind 15 kt aus 230° in Böen 30 kt


Am 13.12. zwischen 00:00 UTC und 00:00 UTC

Wind 12 kt aus 230°

Sichtweite 10 km oder mehr

aufgebrochene Bewölkung in 2000 ft

TAF EDTY 131700Z 1318/1403 23012KT 9999 BKN020 TEMPO 1318/1401 23015G30KT PROB30 TEMPO 1318/1324 4000 RADZ BKN010
Impressum